sensor_id;sensor_type;location;lat;lon;timestamp;P1;durP1;ratioP1;P2;durP2;ratioP2
3359;SDS011;1693;49.602;11.046;2023-02-24T00:01:09;34.37;;;22.90;;
3359;SDS011;1693;49.602;11.046;2023-02-24T00:03:39;31.07;;;23.30;;
3359;SDS011;1693;49.602;11.046;2023-02-24T00:06:10;31.63;;;22.47;;
3359;SDS011;1693;49.602;11.046;2023-02-24T00:08:39;34.47;;;22.27;;
3359;SDS011;1693;49.602;11.046;2023-02-24T00:11:09;33.13;;;22.97;;
3359;SDS011;1693;49.602;11.046;2023-02-24T00:13:42;34.10;;;21.07;;
3359;SDS011;1693;49.602;11.046;2023-02-24T00:16:13;32.00;;;21.70;;
3359;SDS011;1693;49.602;11.046;2023-02-24T00:18:46;33.70;;;20.90;;
3359;SDS011;1693;49.602;11.046;2023-02-24T00:21:15;34.30;;;22.77;;
3359;SDS011;1693;49.602;11.046;2023-02-24T00:23:44;27.50;;;19.90;;
3359;SDS011;1693;49.602;11.046;2023-02-24T00:26:14;30.40;;;21.50;;
3359;SDS011;1693;49.602;11.046;2023-02-24T00:28:42;28.70;;;21.17;;
3359;SDS011;1693;49.602;11.046;2023-02-24T00:31:12;35.87;;;22.07;;
3359;SDS011;1693;49.602;11.046;2023-02-24T00:33:42;37.90;;;20.77;;
3359;SDS011;1693;49.602;11.046;2023-02-24T00:36:12;40.93;;;21.00;;
3359;SDS011;1693;49.602;11.046;2023-02-24T00:38:40;28.30;;;20.13;;
3359;SDS011;1693;49.602;11.046;2023-02-24T00:41:15;30.83;;;21.13;;
3359;SDS011;1693;49.602;11.046;2023-02-24T00:43:48;25.23;;;19.40;;
3359;SDS011;1693;49.602;11.046;2023-02-24T00:46:17;32.13;;;18.33;;
3359;SDS011;1693;49.602;11.046;2023-02-24T00:48:56;28.77;;;20.40;;
3359;SDS011;1693;49.602;11.046;2023-02-24T00:51:25;30.00;;;19.80;;
3359;SDS011;1693;49.602;11.046;2023-02-24T00:53:53;26.33;;;19.90;;
3359;SDS011;1693;49.602;11.046;2023-02-24T00:56:25;31.50;;;19.90;;
3359;SDS011;1693;49.602;11.046;2023-02-24T00:58:55;36.37;;;20.77;;
3359;SDS011;1693;49.602;11.046;2023-02-24T01:01:25;28.23;;;18.53;;
3359;SDS011;1693;49.602;11.046;2023-02-24T01:03:56;32.80;;;21.50;;
3359;SDS011;1693;49.602;11.046;2023-02-24T01:06:24;30.63;;;19.33;;
3359;SDS011;1693;49.602;11.046;2023-02-24T01:08:54;24.13;;;16.87;;
3359;SDS011;1693;49.602;11.046;2023-02-24T01:11:27;29.50;;;19.53;;
3359;SDS011;1693;49.602;11.046;2023-02-24T01:14:18;27.43;;;19.43;;
3359;SDS011;1693;49.602;11.046;2023-02-24T01:16:47;31.63;;;18.70;;
3359;SDS011;1693;49.602;11.046;2023-02-24T01:19:16;29.17;;;21.07;;
3359;SDS011;1693;49.602;11.046;2023-02-24T01:21:45;33.47;;;20.07;;
3359;SDS011;1693;49.602;11.046;2023-02-24T01:24:17;28.00;;;20.10;;
3359;SDS011;1693;49.602;11.046;2023-02-24T01:26:45;35.83;;;22.43;;
3359;SDS011;1693;49.602;11.046;2023-02-24T01:29:13;30.53;;;21.60;;
3359;SDS011;1693;49.602;11.046;2023-02-24T01:31:42;32.50;;;20.83;;
3359;SDS011;1693;49.602;11.046;2023-02-24T01:34:10;29.30;;;20.80;;
3359;SDS011;1693;49.602;11.046;2023-02-24T01:36:39;31.60;;;20.60;;
3359;SDS011;1693;49.602;11.046;2023-02-24T01:39:09;30.33;;;19.20;;
3359;SDS011;1693;49.602;11.046;2023-02-24T01:41:38;32.20;;;20.67;;
3359;SDS011;1693;49.602;11.046;2023-02-24T01:47:13;30.77;;;20.13;;
3359;SDS011;1693;49.602;11.046;2023-02-24T01:49:53;32.97;;;21.07;;
3359;SDS011;1693;49.602;11.046;2023-02-24T01:52:20;32.27;;;21.53;;
3359;SDS011;1693;49.602;11.046;2023-02-24T01:54:50;31.93;;;21.00;;
3359;SDS011;1693;49.602;11.046;2023-02-24T01:57:22;36.07;;;23.30;;
3359;SDS011;1693;49.602;11.046;2023-02-24T01:59:56;35.57;;;21.47;;
3359;SDS011;1693;49.602;11.046;2023-02-24T02:02:38;40.50;;;23.33;;
3359;SDS011;1693;49.602;11.046;2023-02-24T02:05:10;38.03;;;21.40;;
3359;SDS011;1693;49.602;11.046;2023-02-24T02:07:38;40.20;;;23.20;;
3359;SDS011;1693;49.602;11.046;2023-02-24T02:10:09;39.30;;;21.93;;
3359;SDS011;1693;49.602;11.046;2023-02-24T02:12:37;38.23;;;22.93;;
3359;SDS011;1693;49.602;11.046;2023-02-24T02:15:09;43.00;;;23.80;;
3359;SDS011;1693;49.602;11.046;2023-02-24T02:17:46;41.67;;;24.70;;
3359;SDS011;1693;49.602;11.046;2023-02-24T02:23:49;34.53;;;21.10;;
3359;SDS011;1693;49.602;11.046;2023-02-24T02:26:43;42.93;;;22.60;;
3359;SDS011;1693;49.602;11.046;2023-02-24T02:29:37;35.67;;;21.77;;
3359;SDS011;1693;49.602;11.046;2023-02-24T02:35:19;37.23;;;22.70;;
3359;SDS011;1693;49.602;11.046;2023-02-24T02:37:51;38.87;;;22.73;;
3359;SDS011;1693;49.602;11.046;2023-02-24T02:40:24;37.37;;;22.37;;
3359;SDS011;1693;49.602;11.046;2023-02-24T02:42:56;42.13;;;23.77;;
3359;SDS011;1693;49.602;11.046;2023-02-24T02:45:28;37.23;;;21.83;;
3359;SDS011;1693;49.602;11.046;2023-02-24T02:48:02;37.60;;;21.87;;
3359;SDS011;1693;49.602;11.046;2023-02-24T02:50:38;38.33;;;23.23;;
3359;SDS011;1693;49.602;11.046;2023-02-24T02:53:13;45.00;;;21.17;;
3359;SDS011;1693;49.602;11.046;2023-02-24T02:55:49;40.07;;;22.87;;
3359;SDS011;1693;49.602;11.046;2023-02-24T02:58:24;39.80;;;22.90;;
3359;SDS011;1693;49.602;11.046;2023-02-24T03:00:57;39.17;;;23.70;;
3359;SDS011;1693;49.602;11.046;2023-02-24T03:03:29;40.27;;;22.50;;
3359;SDS011;1693;49.602;11.046;2023-02-24T03:06:03;49.07;;;26.17;;
3359;SDS011;1693;49.602;11.046;2023-02-24T03:08:37;43.43;;;23.67;;
3359;SDS011;1693;49.602;11.046;2023-02-24T03:11:10;44.33;;;26.10;;
3359;SDS011;1693;49.602;11.046;2023-02-24T03:13:40;47.37;;;24.20;;
3359;SDS011;1693;49.602;11.046;2023-02-24T03:16:11;39.93;;;24.63;;
3359;SDS011;1693;49.602;11.046;2023-02-24T03:18:44;49.43;;;24.10;;
3359;SDS011;1693;49.602;11.046;2023-02-24T03:21:20;43.17;;;23.20;;
3359;SDS011;1693;49.602;11.046;2023-02-24T03:23:56;48.97;;;25.17;;
3359;SDS011;1693;49.602;11.046;2023-02-24T03:26:25;47.67;;;25.80;;
3359;SDS011;1693;49.602;11.046;2023-02-24T03:28:57;50.37;;;24.63;;
3359;SDS011;1693;49.602;11.046;2023-02-24T03:31:34;49.23;;;26.97;;
3359;SDS011;1693;49.602;11.046;2023-02-24T03:34:09;40.83;;;23.10;;
3359;SDS011;1693;49.602;11.046;2023-02-24T03:36:43;48.73;;;24.60;;
3359;SDS011;1693;49.602;11.046;2023-02-24T03:39:13;43.53;;;24.87;;
3359;SDS011;1693;49.602;11.046;2023-02-24T03:41:42;49.33;;;24.53;;
3359;SDS011;1693;49.602;11.046;2023-02-24T03:44:13;41.60;;;22.43;;
3359;SDS011;1693;49.602;11.046;2023-02-24T03:46:41;49.37;;;26.93;;
3359;SDS011;1693;49.602;11.046;2023-02-24T03:49:10;46.90;;;25.37;;
3359;SDS011;1693;49.602;11.046;2023-02-24T03:51:43;54.70;;;26.83;;
3359;SDS011;1693;49.602;11.046;2023-02-24T03:54:29;49.13;;;27.27;;
3359;SDS011;1693;49.602;11.046;2023-02-24T03:57:13;54.57;;;26.67;;
3359;SDS011;1693;49.602;11.046;2023-02-24T03:59:53;50.00;;;25.93;;
3359;SDS011;1693;49.602;11.046;2023-02-24T04:02:55;47.53;;;24.57;;
3359;SDS011;1693;49.602;11.046;2023-02-24T04:05:29;46.20;;;25.40;;
3359;SDS011;1693;49.602;11.046;2023-02-24T04:08:03;41.80;;;22.00;;
3359;SDS011;1693;49.602;11.046;2023-02-24T04:10:35;43.43;;;23.97;;
3359;SDS011;1693;49.602;11.046;2023-02-24T04:13:17;53.93;;;25.10;;
3359;SDS011;1693;49.602;11.046;2023-02-24T04:15:53;48.93;;;24.83;;
3359;SDS011;1693;49.602;11.046;2023-02-24T04:18:26;47.63;;;25.40;;
3359;SDS011;1693;49.602;11.046;2023-02-24T04:21:00;47.63;;;24.73;;
3359;SDS011;1693;49.602;11.046;2023-02-24T04:23:32;49.33;;;26.27;;
3359;SDS011;1693;49.602;11.046;2023-02-24T04:26:05;46.00;;;24.97;;
3359;SDS011;1693;49.602;11.046;2023-02-24T04:28:36;45.07;;;23.07;;
3359;SDS011;1693;49.602;11.046;2023-02-24T04:31:08;46.80;;;24.57;;
3359;SDS011;1693;49.602;11.046;2023-02-24T04:33:41;47.20;;;26.40;;
3359;SDS011;1693;49.602;11.046;2023-02-24T04:36:15;45.80;;;25.33;;
3359;SDS011;1693;49.602;11.046;2023-02-24T04:38:46;50.30;;;24.40;;
3359;SDS011;1693;49.602;11.046;2023-02-24T04:41:15;52.00;;;27.00;;
3359;SDS011;1693;49.602;11.046;2023-02-24T04:43:45;61.23;;;30.60;;
3359;SDS011;1693;49.602;11.046;2023-02-24T04:46:16;50.07;;;27.97;;
3359;SDS011;1693;49.602;11.046;2023-02-24T04:48:43;59.77;;;29.77;;
3359;SDS011;1693;49.602;11.046;2023-02-24T04:51:11;57.83;;;29.20;;
3359;SDS011;1693;49.602;11.046;2023-02-24T04:53:40;51.57;;;27.53;;
3359;SDS011;1693;49.602;11.046;2023-02-24T04:56:12;54.90;;;26.97;;
3359;SDS011;1693;49.602;11.046;2023-02-24T04:58:39;55.13;;;25.60;;
3359;SDS011;1693;49.602;11.046;2023-02-24T05:01:09;59.27;;;29.60;;
3359;SDS011;1693;49.602;11.046;2023-02-24T05:03:37;52.40;;;26.87;;
3359;SDS011;1693;49.602;11.046;2023-02-24T05:06:10;52.83;;;24.80;;
3359;SDS011;1693;49.602;11.046;2023-02-24T05:08:41;64.07;;;28.00;;
3359;SDS011;1693;49.602;11.046;2023-02-24T05:11:12;52.10;;;27.07;;
3359;SDS011;1693;49.602;11.046;2023-02-24T05:13:41;58.60;;;26.50;;
3359;SDS011;1693;49.602;11.046;2023-02-24T05:16:13;56.10;;;27.93;;
3359;SDS011;1693;49.602;11.046;2023-02-24T05:18:42;49.30;;;26.80;;
3359;SDS011;1693;49.602;11.046;2023-02-24T05:21:11;51.57;;;25.10;;
3359;SDS011;1693;49.602;11.046;2023-02-24T05:24:00;48.30;;;26.47;;
3359;SDS011;1693;49.602;11.046;2023-02-24T05:26:33;53.30;;;26.43;;
3359;SDS011;1693;49.602;11.046;2023-02-24T05:29:02;57.83;;;27.10;;
3359;SDS011;1693;49.602;11.046;2023-02-24T05:31:32;49.43;;;26.27;;
3359;SDS011;1693;49.602;11.046;2023-02-24T05:34:02;50.67;;;26.00;;
3359;SDS011;1693;49.602;11.046;2023-02-24T05:36:33;52.77;;;27.70;;
3359;SDS011;1693;49.602;11.046;2023-02-24T05:39:04;56.80;;;25.63;;
3359;SDS011;1693;49.602;11.046;2023-02-24T05:41:37;55.80;;;27.40;;
3359;SDS011;1693;49.602;11.046;2023-02-24T05:44:09;65.27;;;27.53;;
3359;SDS011;1693;49.602;11.046;2023-02-24T05:46:42;54.80;;;28.67;;
3359;SDS011;1693;49.602;11.046;2023-02-24T05:49:12;65.17;;;28.57;;
3359;SDS011;1693;49.602;11.046;2023-02-24T05:51:41;61.27;;;28.97;;
3359;SDS011;1693;49.602;11.046;2023-02-24T05:54:20;58.13;;;27.13;;
3359;SDS011;1693;49.602;11.046;2023-02-24T05:56:52;61.13;;;31.73;;
3359;SDS011;1693;49.602;11.046;2023-02-24T05:59:22;58.37;;;27.87;;
3359;SDS011;1693;49.602;11.046;2023-02-24T06:01:50;65.40;;;29.70;;
3359;SDS011;1693;49.602;11.046;2023-02-24T06:04:19;59.53;;;27.73;;
3359;SDS011;1693;49.602;11.046;2023-02-24T06:06:53;53.10;;;28.60;;
3359;SDS011;1693;49.602;11.046;2023-02-24T06:09:20;58.20;;;30.00;;
3359;SDS011;1693;49.602;11.046;2023-02-24T06:11:49;67.40;;;31.00;;
3359;SDS011;1693;49.602;11.046;2023-02-24T06:14:16;64.90;;;31.03;;
3359;SDS011;1693;49.602;11.046;2023-02-24T06:16:45;65.93;;;30.70;;
3359;SDS011;1693;49.602;11.046;2023-02-24T06:19:16;52.90;;;27.90;;
3359;SDS011;1693;49.602;11.046;2023-02-24T06:21:45;57.03;;;27.60;;
3359;SDS011;1693;49.602;11.046;2023-02-24T06:24:14;57.17;;;28.97;;
3359;SDS011;1693;49.602;11.046;2023-02-24T06:26:44;54.87;;;27.23;;
3359;SDS011;1693;49.602;11.046;2023-02-24T06:29:15;55.80;;;27.83;;
3359;SDS011;1693;49.602;11.046;2023-02-24T06:31:50;88.80;;;44.20;;
3359;SDS011;1693;49.602;11.046;2023-02-24T06:34:19;60.73;;;29.40;;
3359;SDS011;1693;49.602;11.046;2023-02-24T06:36:48;55.47;;;27.43;;
3359;SDS011;1693;49.602;11.046;2023-02-24T06:39:15;52.13;;;27.50;;
3359;SDS011;1693;49.602;11.046;2023-02-24T06:41:43;42.63;;;24.77;;
3359;SDS011;1693;49.602;11.046;2023-02-24T06:44:10;56.33;;;28.87;;
3359;SDS011;1693;49.602;11.046;2023-02-24T06:46:40;53.77;;;27.70;;
3359;SDS011;1693;49.602;11.046;2023-02-24T06:49:08;50.10;;;27.27;;
3359;SDS011;1693;49.602;11.046;2023-02-24T06:51:37;50.23;;;24.47;;
3359;SDS011;1693;49.602;11.046;2023-02-24T06:54:06;46.37;;;25.07;;
3359;SDS011;1693;49.602;11.046;2023-02-24T06:56:38;47.47;;;27.13;;
3359;SDS011;1693;49.602;11.046;2023-02-24T06:59:07;51.33;;;25.13;;
3359;SDS011;1693;49.602;11.046;2023-02-24T07:01:42;41.10;;;24.00;;
3359;SDS011;1693;49.602;11.046;2023-02-24T07:04:11;49.07;;;26.60;;
3359;SDS011;1693;49.602;11.046;2023-02-24T07:06:45;52.07;;;27.77;;
3359;SDS011;1693;49.602;11.046;2023-02-24T07:09:16;52.27;;;26.40;;
3359;SDS011;1693;49.602;11.046;2023-02-24T07:11:47;56.63;;;26.03;;
3359;SDS011;1693;49.602;11.046;2023-02-24T07:14:18;57.10;;;28.43;;
3359;SDS011;1693;49.602;11.046;2023-02-24T07:16:50;58.40;;;28.47;;
3359;SDS011;1693;49.602;11.046;2023-02-24T07:19:19;56.40;;;26.20;;
3359;SDS011;1693;49.602;11.046;2023-02-24T07:21:54;57.17;;;29.03;;
3359;SDS011;1693;49.602;11.046;2023-02-24T07:24:24;49.73;;;28.47;;
3359;SDS011;1693;49.602;11.046;2023-02-24T07:27:02;51.73;;;27.17;;
3359;SDS011;1693;49.602;11.046;2023-02-24T07:29:31;55.10;;;29.00;;
3359;SDS011;1693;49.602;11.046;2023-02-24T07:32:02;46.43;;;28.77;;
3359;SDS011;1693;49.602;11.046;2023-02-24T07:34:30;51.10;;;27.47;;
3359;SDS011;1693;49.602;11.046;2023-02-24T07:36:59;47.47;;;25.20;;
3359;SDS011;1693;49.602;11.046;2023-02-24T07:39:33;50.87;;;25.17;;
3359;SDS011;1693;49.602;11.046;2023-02-24T07:42:05;49.63;;;27.27;;
3359;SDS011;1693;49.602;11.046;2023-02-24T07:44:33;47.37;;;25.83;;
3359;SDS011;1693;49.602;11.046;2023-02-24T07:47:02;42.87;;;25.93;;
3359;SDS011;1693;49.602;11.046;2023-02-24T07:49:31;57.30;;;29.43;;
3359;SDS011;1693;49.602;11.046;2023-02-24T07:52:00;52.63;;;25.50;;
3359;SDS011;1693;49.602;11.046;2023-02-24T07:54:29;48.73;;;27.10;;
3359;SDS011;1693;49.602;11.046;2023-02-24T07:57:00;55.00;;;24.97;;
3359;SDS011;1693;49.602;11.046;2023-02-24T07:59:28;45.47;;;27.70;;
3359;SDS011;1693;49.602;11.046;2023-02-24T08:01:57;45.03;;;26.37;;
3359;SDS011;1693;49.602;11.046;2023-02-24T08:04:30;49.77;;;25.90;;
3359;SDS011;1693;49.602;11.046;2023-02-24T08:07:01;48.27;;;24.70;;
3359;SDS011;1693;49.602;11.046;2023-02-24T08:09:36;45.10;;;24.93;;
3359;SDS011;1693;49.602;11.046;2023-02-24T08:12:20;45.37;;;25.23;;
3359;SDS011;1693;49.602;11.046;2023-02-24T08:14:52;48.83;;;27.60;;
3359;SDS011;1693;49.602;11.046;2023-02-24T08:17:25;43.87;;;24.03;;
3359;SDS011;1693;49.602;11.046;2023-02-24T08:19:56;50.23;;;25.93;;
3359;SDS011;1693;49.602;11.046;2023-02-24T08:22:47;46.17;;;25.20;;
3359;SDS011;1693;49.602;11.046;2023-02-24T08:25:20;40.23;;;24.97;;
3359;SDS011;1693;49.602;11.046;2023-02-24T08:27:49;39.37;;;21.37;;
3359;SDS011;1693;49.602;11.046;2023-02-24T08:30:21;46.23;;;23.97;;
3359;SDS011;1693;49.602;11.046;2023-02-24T08:32:50;40.50;;;23.13;;
3359;SDS011;1693;49.602;11.046;2023-02-24T08:35:24;38.53;;;23.00;;
3359;SDS011;1693;49.602;11.046;2023-02-24T08:38:00;34.83;;;22.80;;
3359;SDS011;1693;49.602;11.046;2023-02-24T08:40:31;41.87;;;21.10;;
3359;SDS011;1693;49.602;11.046;2023-02-24T08:43:14;38.40;;;22.00;;
3359;SDS011;1693;49.602;11.046;2023-02-24T08:45:57;44.53;;;22.00;;
3359;SDS011;1693;49.602;11.046;2023-02-24T08:48:29;40.10;;;22.10;;
3359;SDS011;1693;49.602;11.046;2023-02-24T08:51:09;35.47;;;20.97;;
3359;SDS011;1693;49.602;11.046;2023-02-24T08:53:43;38.50;;;21.20;;
3359;SDS011;1693;49.602;11.046;2023-02-24T08:56:13;33.27;;;20.13;;
3359;SDS011;1693;49.602;11.046;2023-02-24T08:58:48;38.73;;;21.90;;
3359;SDS011;1693;49.602;11.046;2023-02-24T09:01:21;36.50;;;22.43;;
3359;SDS011;1693;49.602;11.046;2023-02-24T09:03:53;43.37;;;22.70;;
3359;SDS011;1693;49.602;11.046;2023-02-24T09:06:34;29.23;;;18.67;;
3359;SDS011;1693;49.602;11.046;2023-02-24T09:09:06;41.87;;;22.60;;
3359;SDS011;1693;49.602;11.046;2023-02-24T09:11:49;40.43;;;21.40;;
3359;SDS011;1693;49.602;11.046;2023-02-24T09:14:20;32.70;;;19.87;;
3359;SDS011;1693;49.602;11.046;2023-02-24T09:16:50;36.00;;;19.80;;
3359;SDS011;1693;49.602;11.046;2023-02-24T09:19:29;34.77;;;21.00;;
3359;SDS011;1693;49.602;11.046;2023-02-24T09:22:25;33.83;;;19.73;;
3359;SDS011;1693;49.602;11.046;2023-02-24T09:24:57;31.83;;;17.13;;
3359;SDS011;1693;49.602;11.046;2023-02-24T09:27:46;31.53;;;20.53;;
3359;SDS011;1693;49.602;11.046;2023-02-24T09:30:17;29.07;;;17.07;;
3359;SDS011;1693;49.602;11.046;2023-02-24T09:33:10;29.00;;;17.53;;
3359;SDS011;1693;49.602;11.046;2023-02-24T09:35:50;27.10;;;16.30;;
3359;SDS011;1693;49.602;11.046;2023-02-24T09:38:28;29.40;;;16.53;;
3359;SDS011;1693;49.602;11.046;2023-02-24T09:41:19;32.43;;;17.13;;
3359;SDS011;1693;49.602;11.046;2023-02-24T09:43:55;31.20;;;17.30;;
3359;SDS011;1693;49.602;11.046;2023-02-24T09:46:43;30.07;;;15.17;;
3359;SDS011;1693;49.602;11.046;2023-02-24T09:49:21;29.20;;;16.40;;
3359;SDS011;1693;49.602;11.046;2023-02-24T09:52:07;31.10;;;14.97;;
3359;SDS011;1693;49.602;11.046;2023-02-24T09:54:44;27.67;;;16.47;;
3359;SDS011;1693;49.602;11.046;2023-02-24T09:57:32;27.90;;;17.03;;
3359;SDS011;1693;49.602;11.046;2023-02-24T10:00:26;25.60;;;14.73;;
3359;SDS011;1693;49.602;11.046;2023-02-24T10:02:59;24.90;;;15.87;;
3359;SDS011;1693;49.602;11.046;2023-02-24T10:05:44;28.60;;;17.20;;
3359;SDS011;1693;49.602;11.046;2023-02-24T10:08:28;28.33;;;16.03;;
3359;SDS011;1693;49.602;11.046;2023-02-24T10:11:09;24.83;;;15.97;;
3359;SDS011;1693;49.602;11.046;2023-02-24T10:13:41;30.10;;;15.50;;
3359;SDS011;1693;49.602;11.046;2023-02-24T10:16:15;37.37;;;15.90;;
3359;SDS011;1693;49.602;11.046;2023-02-24T10:18:58;24.80;;;14.57;;
3359;SDS011;1693;49.602;11.046;2023-02-24T10:21:44;27.87;;;15.10;;
3359;SDS011;1693;49.602;11.046;2023-02-24T10:24:28;23.40;;;15.23;;
3359;SDS011;1693;49.602;11.046;2023-02-24T10:27:13;21.33;;;13.47;;
3359;SDS011;1693;49.602;11.046;2023-02-24T10:29:52;22.03;;;13.57;;
3359;SDS011;1693;49.602;11.046;2023-02-24T10:32:32;19.20;;;13.87;;
3359;SDS011;1693;49.602;11.046;2023-02-24T10:35:13;21.13;;;14.13;;
3359;SDS011;1693;49.602;11.046;2023-02-24T10:37:44;20.03;;;12.40;;
3359;SDS011;1693;49.602;11.046;2023-02-24T10:40:15;22.03;;;13.60;;
3359;SDS011;1693;49.602;11.046;2023-02-24T10:43:13;23.63;;;14.20;;
3359;SDS011;1693;49.602;11.046;2023-02-24T10:45:46;20.93;;;12.73;;
3359;SDS011;1693;49.602;11.046;2023-02-24T10:48:33;21.47;;;12.40;;
3359;SDS011;1693;49.602;11.046;2023-02-24T10:51:08;19.87;;;12.90;;
3359;SDS011;1693;49.602;11.046;2023-02-24T10:53:45;19.97;;;11.83;;
3359;SDS011;1693;49.602;11.046;2023-02-24T10:56:39;17.10;;;10.87;;
3359;SDS011;1693;49.602;11.046;2023-02-24T10:59:50;25.50;;;14.00;;
3359;SDS011;1693;49.602;11.046;2023-02-24T11:02:43;16.80;;;10.03;;
3359;SDS011;1693;49.602;11.046;2023-02-24T11:05:35;20.17;;;11.97;;
3359;SDS011;1693;49.602;11.046;2023-02-24T11:08:29;17.03;;;9.57;;
3359;SDS011;1693;49.602;11.046;2023-02-24T11:11:19;16.23;;;9.83;;
3359;SDS011;1693;49.602;11.046;2023-02-24T11:13:54;18.73;;;11.87;;
3359;SDS011;1693;49.602;11.046;2023-02-24T11:16:45;15.57;;;9.00;;
3359;SDS011;1693;49.602;11.046;2023-02-24T11:19:31;18.13;;;9.00;;
3359;SDS011;1693;49.602;11.046;2023-02-24T11:22:04;11.60;;;7.43;;
3359;SDS011;1693;49.602;11.046;2023-02-24T11:24:34;14.17;;;7.40;;
3359;SDS011;1693;49.602;11.046;2023-02-24T11:27:02;11.37;;;7.33;;
3359;SDS011;1693;49.602;11.046;2023-02-24T11:29:42;12.30;;;7.63;;
3359;SDS011;1693;49.602;11.046;2023-02-24T11:32:25;14.30;;;8.70;;
3359;SDS011;1693;49.602;11.046;2023-02-24T11:35:06;13.27;;;7.70;;
3359;SDS011;1693;49.602;11.046;2023-02-24T11:37:39;15.73;;;9.03;;
3359;SDS011;1693;49.602;11.046;2023-02-24T11:40:19;11.80;;;7.30;;
3359;SDS011;1693;49.602;11.046;2023-02-24T11:42:50;16.70;;;9.00;;
3359;SDS011;1693;49.602;11.046;2023-02-24T11:45:26;14.80;;;7.33;;
3359;SDS011;1693;49.602;11.046;2023-02-24T11:47:59;12.67;;;7.83;;
3359;SDS011;1693;49.602;11.046;2023-02-24T11:50:38;13.10;;;8.40;;
3359;SDS011;1693;49.602;11.046;2023-02-24T11:53:17;14.90;;;9.17;;
3359;SDS011;1693;49.602;11.046;2023-02-24T11:55:56;13.40;;;8.23;;
3359;SDS011;1693;49.602;11.046;2023-02-24T11:58:30;20.27;;;7.83;;
3359;SDS011;1693;49.602;11.046;2023-02-24T12:01:05;20.47;;;8.33;;
3359;SDS011;1693;49.602;11.046;2023-02-24T12:03:41;10.10;;;6.60;;
3359;SDS011;1693;49.602;11.046;2023-02-24T12:06:17;13.80;;;8.00;;
3359;SDS011;1693;49.602;11.046;2023-02-24T12:08:49;19.90;;;7.77;;
3359;SDS011;1693;49.602;11.046;2023-02-24T12:11:20;12.27;;;6.60;;
3359;SDS011;1693;49.602;11.046;2023-02-24T12:13:58;12.10;;;7.53;;
3359;SDS011;1693;49.602;11.046;2023-02-24T12:16:40;15.30;;;9.07;;
3359;SDS011;1693;49.602;11.046;2023-02-24T12:19:14;12.50;;;7.60;;
3359;SDS011;1693;49.602;11.046;2023-02-24T12:21:47;10.40;;;7.43;;
3359;SDS011;1693;49.602;11.046;2023-02-24T12:24:19;10.57;;;7.20;;
3359;SDS011;1693;49.602;11.046;2023-02-24T12:26:48;13.83;;;7.73;;
3359;SDS011;1693;49.602;11.046;2023-02-24T12:29:34;15.40;;;7.77;;
3359;SDS011;1693;49.602;11.046;2023-02-24T12:32:13;12.40;;;7.47;;
3359;SDS011;1693;49.602;11.046;2023-02-24T12:34:55;14.90;;;8.17;;
3359;SDS011;1693;49.602;11.046;2023-02-24T12:37:40;12.33;;;8.77;;
3359;SDS011;1693;49.602;11.046;2023-02-24T12:40:17;13.17;;;8.80;;
3359;SDS011;1693;49.602;11.046;2023-02-24T12:42:56;13.93;;;8.53;;
3359;SDS011;1693;49.602;11.046;2023-02-24T12:45:34;12.80;;;7.43;;
3359;SDS011;1693;49.602;11.046;2023-02-24T12:48:12;11.90;;;7.17;;
3359;SDS011;1693;49.602;11.046;2023-02-24T12:50:57;15.90;;;8.00;;
3359;SDS011;1693;49.602;11.046;2023-02-24T12:53:35;19.30;;;8.63;;
3359;SDS011;1693;49.602;11.046;2023-02-24T12:56:12;14.70;;;7.50;;
3359;SDS011;1693;49.602;11.046;2023-02-24T12:58:44;16.47;;;6.77;;
3359;SDS011;1693;49.602;11.046;2023-02-24T13:01:17;15.60;;;8.00;;
3359;SDS011;1693;49.602;11.046;2023-02-24T13:04:02;13.83;;;7.70;;
3359;SDS011;1693;49.602;11.046;2023-02-24T13:07:02;11.73;;;8.13;;
3359;SDS011;1693;49.602;11.046;2023-02-24T13:09:37;14.73;;;7.40;;
3359;SDS011;1693;49.602;11.046;2023-02-24T13:12:14;12.17;;;7.43;;
3359;SDS011;1693;49.602;11.046;2023-02-24T13:14:45;13.70;;;7.53;;
3359;SDS011;1693;49.602;11.046;2023-02-24T13:17:15;13.03;;;7.40;;
3359;SDS011;1693;49.602;11.046;2023-02-24T13:19:45;15.00;;;8.07;;
3359;SDS011;1693;49.602;11.046;2023-02-24T13:22:20;16.30;;;7.20;;
3359;SDS011;1693;49.602;11.046;2023-02-24T13:25:02;14.60;;;6.50;;
3359;SDS011;1693;49.602;11.046;2023-02-24T13:27:43;11.30;;;6.93;;
3359;SDS011;1693;49.602;11.046;2023-02-24T13:30:25;12.63;;;7.00;;
3359;SDS011;1693;49.602;11.046;2023-02-24T13:33:06;9.37;;;5.70;;
3359;SDS011;1693;49.602;11.046;2023-02-24T13:35:47;19.13;;;7.63;;
3359;SDS011;1693;49.602;11.046;2023-02-24T13:38:34;11.60;;;6.03;;
3359;SDS011;1693;49.602;11.046;2023-02-24T13:44:00;10.77;;;6.83;;
3359;SDS011;1693;49.602;11.046;2023-02-24T13:46:30;18.70;;;8.23;;
3359;SDS011;1693;49.602;11.046;2023-02-24T13:49:19;17.17;;;7.50;;
3359;SDS011;1693;49.602;11.046;2023-02-24T13:51:56;10.80;;;6.83;;
3359;SDS011;1693;49.602;11.046;2023-02-24T13:54:48;14.73;;;6.53;;
3359;SDS011;1693;49.602;11.046;2023-02-24T13:57:45;12.50;;;6.50;;
3359;SDS011;1693;49.602;11.046;2023-02-24T14:00:22;13.07;;;6.27;;
3359;SDS011;1693;49.602;11.046;2023-02-24T14:03:07;11.23;;;6.67;;
3359;SDS011;1693;49.602;11.046;2023-02-24T14:05:36;10.73;;;6.40;;
3359;SDS011;1693;49.602;11.046;2023-02-24T14:08:07;18.90;;;8.47;;
3359;SDS011;1693;49.602;11.046;2023-02-24T14:10:43;13.17;;;8.80;;
3359;SDS011;1693;49.602;11.046;2023-02-24T14:13:16;9.27;;;7.03;;
3359;SDS011;1693;49.602;11.046;2023-02-24T14:15:52;10.73;;;6.73;;
3359;SDS011;1693;49.602;11.046;2023-02-24T14:18:20;12.93;;;6.83;;
3359;SDS011;1693;49.602;11.046;2023-02-24T14:20:48;11.80;;;6.33;;
3359;SDS011;1693;49.602;11.046;2023-02-24T14:23:18;11.80;;;6.80;;
3359;SDS011;1693;49.602;11.046;2023-02-24T14:25:49;14.50;;;7.93;;
3359;SDS011;1693;49.602;11.046;2023-02-24T14:28:21;11.47;;;6.83;;
3359;SDS011;1693;49.602;11.046;2023-02-24T14:30:54;11.10;;;6.40;;
3359;SDS011;1693;49.602;11.046;2023-02-24T14:33:24;14.83;;;7.30;;
3359;SDS011;1693;49.602;11.046;2023-02-24T14:35:55;14.20;;;6.93;;
3359;SDS011;1693;49.602;11.046;2023-02-24T14:38:29;10.63;;;6.00;;
3359;SDS011;1693;49.602;11.046;2023-02-24T14:41:01;13.07;;;6.03;;
3359;SDS011;1693;49.602;11.046;2023-02-24T14:43:28;9.50;;;6.47;;
3359;SDS011;1693;49.602;11.046;2023-02-24T14:45:56;14.00;;;7.73;;
3359;SDS011;1693;49.602;11.046;2023-02-24T14:48:24;10.40;;;6.70;;
3359;SDS011;1693;49.602;11.046;2023-02-24T14:50:52;16.47;;;7.03;;
3359;SDS011;1693;49.602;11.046;2023-02-24T14:53:21;9.33;;;6.00;;
3359;SDS011;1693;49.602;11.046;2023-02-24T14:55:50;10.70;;;7.03;;
3359;SDS011;1693;49.602;11.046;2023-02-24T14:58:21;12.63;;;6.20;;
3359;SDS011;1693;49.602;11.046;2023-02-24T15:00:52;11.80;;;5.83;;
3359;SDS011;1693;49.602;11.046;2023-02-24T15:03:21;9.97;;;6.70;;
3359;SDS011;1693;49.602;11.046;2023-02-24T15:05:51;14.40;;;5.80;;
3359;SDS011;1693;49.602;11.046;2023-02-24T15:08:26;13.53;;;7.10;;
3359;SDS011;1693;49.602;11.046;2023-02-24T15:10:55;11.30;;;6.90;;
3359;SDS011;1693;49.602;11.046;2023-02-24T15:13:26;14.40;;;6.93;;
3359;SDS011;1693;49.602;11.046;2023-02-24T15:15:54;11.70;;;5.77;;
3359;SDS011;1693;49.602;11.046;2023-02-24T15:18:23;10.10;;;5.23;;
3359;SDS011;1693;49.602;11.046;2023-02-24T15:21:01;10.57;;;6.47;;
3359;SDS011;1693;49.602;11.046;2023-02-24T15:23:30;13.73;;;6.60;;
3359;SDS011;1693;49.602;11.046;2023-02-24T15:25:57;11.80;;;6.83;;
3359;SDS011;1693;49.602;11.046;2023-02-24T15:28:27;8.80;;;6.20;;
3359;SDS011;1693;49.602;11.046;2023-02-24T15:31:01;9.60;;;5.80;;
3359;SDS011;1693;49.602;11.046;2023-02-24T15:33:30;13.87;;;6.40;;